Terminal Aerodrome Forecast
Issued by NWS

Home | Current Version | Previous Version | Text Only | Print | Product List | Glossary Off
Versions: 1 2 3 4 5 6 7 8 9 10 11 12

000
FTUS44 KTSA 032320
TAFXNA
TAF
KXNA 032320Z 0400/0424 22005KT P6SM BKN120
     FM040100 VRB04KT P6SM SCT090 BKN200=

USA.gov is the U.S. government's official web portal to all federal, state and local government web resources and services.